Charter Quote
Worldwide +1-877-727-2538 Call
Select Language Lang
SAFETY RELIABILITY EXPERIENCE

Private Jet Charter Services - Fuyang Airport (ZSFY)

Paramount Business Jets offers private jet charter flights and luxury airliner charters to and from Fuyang Airport.

AIRPORT INFORMATION
ICAOZSFY
LOCATIONFuyang, China
FACILITY TYPEAIRPORT

At Paramount Business Jets you can hire chartered private jets to and from Fuyang Airport with as little as 4 hours of notice. All flights booked via Paramount Business Jets are operated by certified direct air carriers that meet and exceed the FAA part 135 and 121 protocol or a foreign equivalent safety authority. Furthermore, Paramount Business Jets subscribes to ARGUS for their third party safety checks of operators, aircraft, and crews prior each and every flight to and from Fuyang Airport and worldwide.

  • Quote a trip using Fuyang Airport or call us 24/7 - 365 days a year at +1-877-727-2538.
Questions? Call +1-877-727-2538

METAR Weather Data at Fuyang Airport, ZSFY

STATIONZSFY
OBSERVEDSun Mar 10, 04:00 UTC
NOWTue Jul 16, 04:01 UTC
AGE55656:01 hr ago
WINDENE at 13 mph
VISIBILITYgreater than 7 miles
CLOUDSclear skies
TEMP50°F (10°C)
WIND CHILL45°F (7°C)
DEWPT16°F (-9°C)
HUMIDITY25%
BAROMETER1028 hPa (30.36 in Hg)
METARZSFY 100400Z 06006MPS CAVOK 10/M09 Q1028 NOSIG

Call us on +1-877-727-2538 (24 Hours) to Hire a Private Jet or Get a Quick Quote.

Find Airports Near any Location

Processing
...